Latest Weather Observations for Kanagulk

IDV60801

Issued at 7:52 am EDT Wednesday 24 October 2018 (issued every 10 minutes, with the page automatically refreshed every 10 minutes)

About weather observations | Map of weather stations | Latest weather observations for VIC | Other Formats
Station Details ID: 079097 Name: KANAGULK Lat: -37.12 Lon: 141.80 Height: 188.8 m
Data from the previous 72 hours. | See also: Recent months at Kanagulk
Date/Time
EDT
Temp
°C
App
Temp
°C
Dew
Point
°C
Rel
Hum
%
Delta-T
°C
Wind Press
QNH
hPa
Press
MSL
hPa
Rain since
9am
mm
Dir  Spd
km/h
Gust
km/h
Spd
kts
Gust
kts
24/07:30am 2.6 1.0 2.5 99 0.0 CALM 0 0 0 0 1023.5 1023.5 0.2
24/07:00am 0.8 -1.1 0.7 99 0.0 CALM 0 0 0 0 1023.1 1023.1 0.2
24/06:30am 0.4 -1.5 0.3 99 0.0 CALM 0 0 0 0 1022.9 1022.9 0.2
24/06:00am 1.4 -0.4 1.3 99 0.0 CALM 0 0 0 0 1022.7 1022.7 0.2
24/05:30am 0.7 -1.2 0.3 97 0.1 CALM 0 0 0 0 1022.4 1022.4 0.2
24/05:00am 2.2 -0.6 1.8 97 0.2 SSE 6 7 3 4 1022.4 1022.4 0.2
24/04:30am 2.8 -0.2 2.2 96 0.2 S 7 11 4 6 1022.2 1022.2 0.2
24/04:00am 4.2 1.1 3.6 96 0.2 SSW 9 11 5 6 1022.3 1022.3 0.2
24/03:30am 4.5 2.0 3.6 94 0.4 SSW 6 9 3 5 1022.0 1022.0 0.2
24/03:00am 5.1 2.4 3.8 91 0.5 SSW 7 9 4 5 1022.0 1022.0 0.2
24/02:30am 5.0 1.6 4.1 94 0.4 SSW 11 15 6 8 1022.0 1022.0 0.2
24/02:00am 5.3 2.3 4.3 93 0.4 SSW 9 13 5 7 1022.2 1022.2 0.2
24/01:30am 5.0 2.3 3.8 92 0.5 SSW 7 11 4 6 1022.2 1022.2 0.2
24/01:00am 5.7 2.7 4.0 89 0.7 S 9 13 5 7 1022.3 1022.3 0.2
24/12:30am 5.3 2.2 3.5 88 0.8 S 9 11 5 6 1022.5 1022.5 0.2
24/12:00am 6.5 3.9 4.3 86 1.0 SSW 7 11 4 6 1022.5 1022.5 0.2
 
Date/Time
EDT
Temp
°C
App
Temp
°C
Dew
Point
°C
Rel
Hum
%
Delta-T
°C
Wind Press
QNH
hPa
Press
MSL
hPa
Rain since
9am
mm
Dir  Spd
km/h
Gust
km/h
Spd
kts
Gust
kts
23/11:30pm 6.7 3.7 4.2 84 1.1 SSW 9 11 5 6 1022.4 1022.4 0.2
23/11:00pm 6.9 3.9 4.2 83 1.2 SSW 9 13 5 7 1022.3 1022.3 0.2
23/10:30pm 7.4 3.6 4.0 79 1.5 S 13 17 7 9 1022.3 1022.3 0.2
23/10:00pm 8.6 4.1 4.0 73 2.0 S 17 20 9 11 1022.2 1022.2 0.2
23/09:30pm 8.9 5.5 4.1 72 2.1 SSW 11 15 6 8 1021.8 1021.7 0.2
23/09:00pm 9.2 5.5 4.4 72 2.1 SSW 13 22 7 12 1021.4 1021.3 0.2
23/08:30pm 10.2 6.5 4.6 68 2.5 SSW 13 22 7 12 1020.7 1020.6 0.2
23/08:00pm 11.2 6.7 4.4 63 3.1 S 17 26 9 14 1019.8 1019.7 0.2
23/07:30pm 11.9 7.8 4.4 60 3.4 SSW 15 24 8 13 1019.6 1019.5 0.2
23/07:00pm 12.3 7.8 4.3 58 3.7 SSW 17 28 9 15 1019.0 1018.9 0.2
23/06:30pm 13.4 8.5 4.3 54 4.2 SSW 19 28 10 15 1018.5 1018.5 0.2
23/06:00pm 14.3 9.5 5.4 55 4.2 SSW 20 32 11 17 1018.1 1018.1 0.2
23/05:30pm 14.1 9.4 5.2 55 4.2 SSW 19 30 10 16 1017.9 1017.9 0.2
23/05:00pm 14.0 9.1 5.1 55 4.2 SSW 20 35 11 19 1017.5 1017.5 0.2
23/04:30pm 16.3 11.9 5.0 47 5.4 SW 17 33 9 18 1016.7 1016.6 0.2
23/04:00pm 14.8 9.8 4.8 51 4.7 SW 20 33 11 18 1016.6 1016.5 0.2
23/03:30pm 17.2 13.5 6.4 49 5.4 WSW 15 26 8 14 1016.3 1016.2 0.2
23/03:00pm 16.7 12.2 5.9 49 5.3 SW 19 35 10 19 1016.2 1016.1 0.2
23/02:30pm 15.4 11.1 7.9 61 3.8 SW 20 35 11 19 1016.3 1016.2 0.2
23/02:00pm 15.3 10.7 6.6 56 4.3 SW 20 32 11 17 1016.2 1016.1 0.2
23/01:30pm 16.2 12.5 7.9 58 4.2 WSW 17 26 9 14 1016.1 1016.0 0.2
23/01:00pm 15.2 11.6 8.4 64 3.5 WSW 17 26 9 14 1016.3 1016.2 0.2
23/12:30pm 12.5 7.6 8.4 76 2.1 SW 24 41 13 22 1016.5 1016.4 0.2
23/12:00pm 15.7 12.1 8.4 62 3.7 WSW 17 28 9 15 1016.1 1016.0 0.0
23/11:30am 14.8 12.4 8.5 66 3.2 SW 11 20 6 11 1016.1 1016.0 0.0
23/11:00am 13.7 10.4 7.9 68 2.9 WSW 15 32 8 17 1016.3 1016.2 0.0
23/10:30am 14.1 10.9 8.5 69 2.8 WSW 15 24 8 13 1016.0 1015.9 0.0
23/10:00am 13.9 10.8 8.7 71 2.6 WSW 15 28 8 15 1015.8 1015.7 0.0
23/09:30am 12.9 9.5 9.0 77 2.0 SW 17 28 9 15 1015.5 1015.4 0.0
23/09:00am 12.7 11.2 11.8 94 0.5 WSW 11 20 6 11 1015.2 1015.1 0.6
23/08:30am 11.8 10.2 11.6 99 0.1 SW 11 19 6 10 1015.0 1014.9 0.6
23/08:00am 10.9 9.9 10.9 100 0.0 WSW 7 15 4 8 1014.7 1014.6 0.6
23/07:30am 10.3 10.1 10.3 100 0.0 SW 2 7 1 4 1014.2 1014.1 0.6
23/07:00am 9.8 9.8 9.7 99 0.1 CALM 0 0 0 0 1013.7 1013.6 0.6
23/06:30am 10.5 10.3 10.5 100 0.0 WSW 2 7 1 4 1013.2 1013.1 0.6
23/06:00am 10.7 10.6 10.7 100 0.0 NW 2 7 1 4 1012.8 1012.7 0.6
23/05:30am 10.5 9.9 10.3 99 0.1 NW 4 9 2 5 1012.1 1012.0 0.6
23/05:00am 10.8 9.9 10.6 99 0.1 E 6 9 3 5 1012.0 1011.9 0.6
23/04:30am 11.0 9.6 10.8 99 0.1 S 9 13 5 7 1011.7 1011.6 0.0
23/04:00am 11.2 9.9 10.1 93 0.6 SSW 7 9 4 5 1011.8 1011.7 0.0
23/03:30am 11.6 10.4 9.5 87 1.1 W 6 9 3 5 1012.6 1012.5 0.0
23/03:00am 11.9 9.7 9.5 85 1.2 SSW 11 19 6 10 1011.6 1011.5 0.0
23/02:30am 11.9 10.5 8.9 82 1.5 WSW 6 11 3 6 1011.8 1011.7 0.0
23/02:00am 12.2 9.5 8.9 80 1.7 SSW 13 22 7 12 1011.6 1011.5 0.0
23/01:30am 12.2 7.8 9.0 81 1.6 SSW 22 32 12 17 1011.1 1011.0 0.0
23/01:00am 12.7 9.3 9.0 78 1.9 SSW 17 24 9 13 1011.8 1011.7 0.0
23/12:30am 12.9 10.3 9.4 79 1.8 S 13 17 7 9 1012.6 1012.5 0.0
23/12:00am 13.3 9.9 9.2 76 2.1 SSW 17 26 9 14 1011.9 1011.8 0.0
 
Date/Time
EDT
Temp
°C
App
Temp
°C
Dew
Point
°C
Rel
Hum
%
Delta-T
°C
Wind Press
QNH
hPa
Press
MSL
hPa
Rain since
9am
mm
Dir  Spd
km/h
Gust
km/h
Spd
kts
Gust
kts
22/11:30pm 13.3 11.6 9.9 80 1.8 S 9 13 5 7 1012.4 1012.3 0.0
22/11:00pm 13.7 11.9 9.4 75 2.2 SSW 9 13 5 7 1011.6 1011.5 0.0
22/10:30pm 14.0 11.8 9.2 73 2.5 S 11 20 6 11 1011.7 1011.6 0.0
22/10:00pm 14.6 11.3 9.4 71 2.7 S 17 24 9 13 1011.7 1011.6 0.0
22/09:30pm 15.2 11.8 9.3 68 3.1 S 17 22 9 12 1010.9 1010.8 0.0
22/09:00pm 16.5 13.6 8.0 57 4.3 SSW 13 17 7 9 1011.2 1011.1 0.0
22/08:30pm 17.1 14.2 8.0 55 4.7 SW 13 20 7 11 1010.5 1010.4 0.0
22/08:00pm 18.5 15.0 8.7 53 5.1 WSW 17 28 9 15 1009.8 1009.7 0.0
22/07:30pm 20.8 18.1 8.8 46 6.4 WSW 13 19 7 10 1009.4 1009.3 0.0
22/07:00pm 22.8 19.8 7.8 38 7.9 W 13 20 7 11 1008.9 1008.8 0.0
22/06:30pm 24.8 21.8 7.9 34 9.0 W 13 22 7 12 1008.5 1008.3 0.0
22/06:00pm 26.4 22.2 5.9 27 10.7 WNW 17 32 9 17 1008.3 1008.1 0.0
22/05:30pm 27.1 22.2 2.2 20 12.2 NW 17 32 9 17 1008.2 1008.0 0.0
22/05:00pm 27.2 21.8 4.3 23 11.7 NW 22 37 12 20 1008.6 1008.5 0.0
22/04:30pm 26.6 21.0 3.2 22 11.7 NW 22 41 12 22 1008.7 1008.6 0.0
22/04:00pm 26.2 22.4 7.7 31 10.0 WNW 17 26 9 14 1008.9 1008.8 0.0
22/03:30pm 26.8 22.5 5.1 25 11.2 WNW 17 32 9 17 1009.2 1009.1 0.0
22/03:00pm 26.0 21.1 5.0 26 10.8 WNW 20 43 11 23 1009.4 1009.3 0.0
22/02:30pm 27.3 23.2 6.1 26 11.2 NW 17 33 9 18 1009.6 1009.5 0.0
22/02:00pm 26.3 21.1 3.5 23 11.4 NW 20 37 11 20 1009.9 1009.8 0.0
22/01:30pm 26.3 20.3 3.5 23 11.4 NW 24 41 13 22 1010.2 1010.1 0.0
22/01:00pm 25.8 19.9 3.7 24 11.1 NW 24 41 13 22 1010.5 1010.4 0.0
22/12:30pm 25.6 20.2 4.7 26 10.6 NNW 22 39 12 21 1010.7 1010.6 0.0
22/12:00pm 25.5 20.9 6.7 30 9.9 NNW 20 37 11 20 1011.2 1011.1 0.0
22/11:30am 24.8 20.0 7.4 33 9.2 N 22 33 12 18 1011.7 1011.6 0.0
22/11:00am 22.9 17.3 5.3 32 8.9 N 24 33 13 18 1012.1 1012.0 0.0
22/10:30am 21.3 16.9 7.2 40 7.3 N 20 32 11 17 1012.5 1012.4 0.0
22/10:00am 19.0 14.2 5.8 42 6.6 N 20 33 11 18 1012.7 1012.6 0.0
22/09:30am 16.6 12.1 6.1 50 5.2 N 19 28 10 15 1012.8 1012.7 0.0
22/09:00am 15.2 11.5 6.2 55 4.4 NNE 15 20 8 11 1012.8 1012.7 0.0
22/08:30am 12.8 10.0 6.8 67 2.9 NNE 11 19 6 10 1013.0 1013.0 0.0
22/08:00am 10.6 7.4 6.9 78 1.8 NNE 13 17 7 9 1012.8 1012.7 0.0
22/07:30am 9.0 5.0 6.6 85 1.1 NNE 17 19 9 10 1012.6 1012.5 0.0
22/07:00am 7.7 4.8 6.3 91 0.6 NNE 11 13 6 7 1012.4 1012.3 0.0
22/06:30am 7.5 3.4 6.3 92 0.6 NNE 17 20 9 11 1012.4 1012.3 0.0
22/06:00am 7.9 3.9 6.8 93 0.5 NNE 17 20 9 11 1012.3 1012.2 0.0
22/05:30am 7.5 4.0 7.4 99 0.0 NNE 15 19 8 10 1012.4 1012.3 0.0
22/05:00am 7.3 4.2 7.2 99 0.0 NNE 13 17 7 9 1012.5 1012.4 0.0
22/04:30am 6.2 2.8 6.1 99 0.0 NE 13 15 7 8 1012.7 1012.6 0.0
22/04:00am 6.2 2.8 6.1 99 0.0 NE 13 15 7 8 1012.9 1012.8 0.0
22/03:30am 5.9 3.8 5.8 99 0.0 N 6 11 3 6 1013.4 1013.3 0.0
22/03:00am 5.6 4.6 5.5 99 0.0 CALM 0 0 0 0 1013.5 1013.4 0.0
22/02:30am 6.1 5.2 6.0 99 0.0 CALM 0 0 0 0 1013.6 1013.5 0.0
22/02:00am 6.6 5.8 6.5 99 0.0 CALM 0 0 0 0 1014.0 1013.9 0.0
22/01:30am 6.6 5.8 6.5 99 0.0 CALM 0 0 0 0 1014.3 1014.2 0.0
22/01:00am 8.2 7.8 8.1 99 0.0 CALM 0 0 0 0 1014.7 1014.6 0.0
22/12:30am 8.3 7.9 8.2 99 0.0 CALM 0 0 0 0 1014.9 1014.8 0.0
22/12:00am 8.6 8.3 8.5 99 0.0 CALM 0 0 0 0 1015.2 1015.1 0.0
 
Date/Time
EDT
Temp
°C
App
Temp
°C
Dew
Point
°C
Rel
Hum
%
Delta-T
°C
Wind Press
QNH
hPa
Press
MSL
hPa
Rain since
9am
mm
Dir  Spd
km/h
Gust
km/h
Spd
kts
Gust
kts
21/11:30pm 8.6 8.3 8.5 99 0.0 CALM 0 0 0 0 1015.6 1015.5 0.0
21/11:00pm 9.4 9.2 9.1 98 0.1 CALM 0 0 0 0 1015.9 1015.8 0.0
21/10:30pm 10.0 9.1 7.9 87 1.0 ESE 2 6 1 3 1016.0 1015.9 0.0
21/10:00pm 11.0 9.5 8.6 85 1.2 ESE 6 7 3 4 1016.0 1015.9 0.0
21/09:30pm 11.8 11.5 8.6 81 1.6 CALM 0 0 0 0 1016.1 1016.0 0.0
21/09:00pm 12.0 11.7 8.7 80 1.7 CALM 0 0 0 0 1016.2 1016.1 0.0
21/08:30pm 13.3 13.0 8.8 74 2.3 CALM 0 0 0 0 1016.1 1016.0 0.0
21/08:00pm 13.9 13.6 8.5 70 2.7 CALM 0 0 0 0 1016.1 1016.0 0.0
21/07:30pm 15.8 15.6 9.2 65 3.4 CALM 0 0 0 0 1016.0 1015.9 0.0
21/07:00pm 17.0 16.3 8.4 57 4.4 S 2 9 1 5 1016.0 1015.9 0.0
21/06:30pm 18.4 16.9 8.4 52 5.2 W 6 9 3 5 1015.9 1015.8 0.0
21/06:00pm 18.7 17.2 9.2 54 5.0 W 7 13 4 7 1016.0 1015.9 0.0
21/05:30pm 19.0 17.8 9.5 54 5.1 WSW 6 15 3 8 1016.3 1016.2 0.0
21/05:00pm 18.2 17.2 8.7 54 5.0 NW 4 11 2 6 1016.5 1016.4 0.0
21/04:30pm 18.7 17.0 8.4 51 5.4 WNW 7 15 4 8 1016.7 1016.6 0.0
21/04:00pm 18.5 16.4 8.2 51 5.3 NW 9 17 5 9 1017.0 1016.9 0.0
21/03:30pm 17.8 16.7 8.6 55 4.8 WNW 4 9 2 5 1017.5 1017.5 0.0
21/03:00pm 18.5 16.5 8.7 53 5.1 W 9 19 5 10 1017.9 1017.9 0.0
21/02:30pm 17.2 16.5 8.4 56 4.5 W 2 7 1 4 1018.4 1018.4 0.0
21/02:00pm 16.7 14.9 8.1 57 4.4 WSW 7 13 4 7 1018.8 1018.7 0.0
21/01:30pm 17.1 14.9 9.5 61 4.0 W 11 19 6 10 1019.3 1019.2 0.0
21/01:00pm 16.2 13.6 7.9 58 4.2 NW 11 19 6 10 1019.6 1019.5 0.0
21/12:30pm 16.3 14.3 8.5 60 4.0 NW 9 19 5 10 1020.0 1019.9 0.0
21/12:00pm 15.2 13.4 9.3 68 3.1 NW 9 17 5 9 1020.5 1020.4 0.0
21/11:30am 15.0 13.8 9.4 69 2.9 N 6 11 3 6 1020.8 1020.7 0.0
21/11:00am 14.2 13.4 11.2 82 1.6 NW 6 11 3 6 1021.1 1021.0 0.0
21/10:30am 12.8 12.5 12.8 100 0.0 WNW 6 9 3 5 1021.3 1021.2 0.0
21/10:00am 10.6 10.8 10.6 100 0.0 CALM 0 7 0 4 1021.4 1021.3 0.0
21/09:30am 9.6 9.5 9.6 100 0.0 CALM 0 0 0 0 1021.3 1021.2 0.0
21/09:00am 8.4 8.0 8.4 100 0.0 CALM 0 0 0 0 1021.3 1021.2 0.8
21/08:30am 7.6 7.0 7.6 100 0.0 CALM 0 0 0 0 1021.1 1021.0 0.8
21/08:00am 5.9 5.0 5.9 100 0.0 CALM 0 0 0 0 1020.7 1020.6 0.8

Other Formats:

Comma delimited format used in spreadsheet applications
http://www.bom.gov.au/fwo/IDV60801/IDV60801.95827.axf

JavaScript Object Notation format (JSON) in row-major order
http://www.bom.gov.au/fwo/IDV60801/IDV60801.95827.json